Aviation Digital Data Service (ADDS)

Output produced by METARs form (2250 UTC 23 March 2019)
found at http://www.aviationweather.gov/metar/data/
 
METAR text: RJFK 232200Z 34006KT 9999 FEW030 03/M01 Q1020 RMK 1CU030 A3013 VOLCANIC ASH CLOUD S
Conditions at: RJFK (KAGOSHIMA AIRPOR, JP) observed 2200 UTC 23 March 2019
Temperature: 3.0°C (37°F)
Dewpoint: -1.0°C (30°F) [RH = 75%]
Pressure (altimeter): 30.12 inches Hg (1020.0 mb)
Winds: from the NNW (340 degrees) at 7 MPH (6 knots; 3.1 m/s)
Visibility: 6 or more miles (10+ km)
Ceiling: at least 12,000 feet AGL
Clouds: few clouds at 3000 feet AGL
Weather: no significant weather observed at this time

METAR text: RJFK 232100Z 30006KT 9999 FEW030 01/M03 Q1019 RMK 1CU030 A3011
Conditions at: RJFK (KAGOSHIMA AIRPOR, JP) observed 2100 UTC 23 March 2019
Temperature: 1.0°C (34°F)
Dewpoint: -3.0°C (27°F) [RH = 75%]
Pressure (altimeter): 30.09 inches Hg (1019.0 mb)
Winds: from the WNW (300 degrees) at 7 MPH (6 knots; 3.1 m/s)
Visibility: 6 or more miles (10+ km)
Ceiling: at least 12,000 feet AGL
Clouds: few clouds at 3000 feet AGL
Weather: no significant weather observed at this time

METAR text: RJFK 231200Z 32011KT 9999 FEW030 SCT/// 07/M03 Q1018 RMK 1CU030 A3009
Conditions at: RJFK (KAGOSHIMA AIRPOR, JP) observed 1200 UTC 23 March 2019
Temperature: 7.0°C (45°F)
Dewpoint: -3.0°C (27°F) [RH = 49%]
Pressure (altimeter): 30.06 inches Hg (1018.0 mb)
Winds: from the NW (320 degrees) at 13 MPH (11 knots; 5.7 m/s)
Visibility: 6 or more miles (10+ km)
Ceiling: at least 12,000 feet AGL
Clouds: few clouds at 3000 feet AGL
Weather: no significant weather observed at this time

METAR text: RJFK 231100Z 31012KT 9999 FEW030 BKN/// 07/M04 Q1018 RMK 1CU030 A3007
Conditions at: RJFK (KAGOSHIMA AIRPOR, JP) observed 1100 UTC 23 March 2019
Temperature: 7.0°C (45°F)
Dewpoint: -4.0°C (25°F) [RH = 45%]
Pressure (altimeter): 30.06 inches Hg (1018.0 mb)
Winds: from the NW (310 degrees) at 14 MPH (12 knots; 6.2 m/s)
Visibility: 6 or more miles (10+ km)
Ceiling: at least 12,000 feet AGL
Clouds: few clouds at 3000 feet AGL
Weather: no significant weather observed at this time

METAR text: RJFK 231000Z 31014KT 9999 FEW030 BKN/// 08/M02 Q1017 RMK 1CU030 A3005 VOLCANIC ASH CLOUD S
Conditions at: RJFK (KAGOSHIMA AIRPOR, JP) observed 1000 UTC 23 March 2019
Temperature: 8.0°C (46°F)
Dewpoint: -2.0°C (28°F) [RH = 49%]
Pressure (altimeter): 30.03 inches Hg (1017.0 mb)
Winds: from the NW (310 degrees) at 16 MPH (14 knots; 7.2 m/s)
Visibility: 6 or more miles (10+ km)
Ceiling: at least 12,000 feet AGL
Clouds: few clouds at 3000 feet AGL
Weather: no significant weather observed at this time

METAR text: RJFK 230900Z 32015KT 9999 FEW040 BKN/// 10/M01 Q1016 RMK 1CU040 A3002 VOLCANIC ASH CLOUD S
Conditions at: RJFK (KAGOSHIMA AIRPOR, JP) observed 0900 UTC 23 March 2019
Temperature: 10.0°C (50°F)
Dewpoint: -1.0°C (30°F) [RH = 46%]
Pressure (altimeter): 30.00 inches Hg (1016.0 mb)
Winds: from the NW (320 degrees) at 17 MPH (15 knots; 7.7 m/s)
Visibility: 6 or more miles (10+ km)
Ceiling: at least 12,000 feet AGL
Clouds: few clouds at 4000 feet AGL
Weather: no significant weather observed at this time

METAR text: RJFK 230800Z 31017KT 9999 FEW040 SCT/// 12/M02 Q1015
Conditions at: RJFK (KAGOSHIMA AIRPOR, JP) observed 0800 UTC 23 March 2019
Temperature: 12.0°C (54°F)
Dewpoint: -2.0°C (28°F) [RH = 38%]
Pressure (altimeter): 29.97 inches Hg (1015.0 mb)
Winds: from the NW (310 degrees) at 20 MPH (17 knots; 8.7 m/s)
Visibility: 6 or more miles (10+ km)
Ceiling: at least 12,000 feet AGL
Clouds: few clouds at 4000 feet AGL
Weather: no significant weather observed at this time

METAR text: RJFK 230700Z 32017KT 9999 FEW030 BKN040 12/00 Q1015 RMK 1CU030 5CU040 A2998
Conditions at: RJFK (KAGOSHIMA AIRPOR, JP) observed 0700 UTC 23 March 2019
Temperature: 12.0°C (54°F)
Dewpoint: 0.0°C (32°F) [RH = 44%]
Pressure (altimeter): 29.97 inches Hg (1015.0 mb)
Winds: from the NW (320 degrees) at 20 MPH (17 knots; 8.7 m/s)
Visibility: 6 or more miles (10+ km)
Ceiling: 4000 feet AGL
Clouds: few clouds at 3000 feet AGL
broken clouds at 4000 feet AGL
Weather: no significant weather observed at this time

METAR text: RJFK 230608Z 31017G27KT 9999 FEW030 BKN040 13/00 Q1015 RMK 1CU030 6CU040 A2998
Conditions at: RJFK (KAGOSHIMA AIRPOR, JP) observed 0608 UTC 23 March 2019
Temperature: 13.0°C (55°F)
Dewpoint: 0.0°C (32°F) [RH = 41%]
Pressure (altimeter): 29.97 inches Hg (1015.0 mb)
Winds: from the NW (310 degrees) at 20 MPH (17 knots; 8.7 m/s)
gusting to 31 MPH (27 knots; 13.9 m/s)
Visibility: 6 or more miles (10+ km)
Ceiling: 4000 feet AGL
Clouds: few clouds at 3000 feet AGL
broken clouds at 4000 feet AGL
Weather: no significant weather observed at this time

METAR text: RJFK 230600Z 32019KT 9999 FEW030 BKN040 12/01 Q1015 RMK 1CU030 6CU040 A2998
Conditions at: RJFK (KAGOSHIMA AIRPOR, JP) observed 0600 UTC 23 March 2019
Temperature: 12.0°C (54°F)
Dewpoint: 1.0°C (34°F) [RH = 47%]
Pressure (altimeter): 29.97 inches Hg (1015.0 mb)
Winds: from the NW (320 degrees) at 22 MPH (19 knots; 9.8 m/s)
Visibility: 6 or more miles (10+ km)
Ceiling: 4000 feet AGL
Clouds: few clouds at 3000 feet AGL
broken clouds at 4000 feet AGL
Weather: no significant weather observed at this time

METAR text: RJFK 230526Z 32015G25KT 9999 FEW030 BKN040 14/M00 Q1015 RMK 1CU030 5CU040 A2998
Conditions at: RJFK (KAGOSHIMA AIRPOR, JP) observed 0526 UTC 23 March 2019
Temperature: 14.0°C (57°F)
Dewpoint: 0.0°C (32°F) [RH = 38%]
Pressure (altimeter): 29.97 inches Hg (1015.0 mb)
Winds: from the NW (320 degrees) at 17 MPH (15 knots; 7.7 m/s)
gusting to 29 MPH (25 knots; 12.9 m/s)
Visibility: 6 or more miles (10+ km)
Ceiling: 4000 feet AGL
Clouds: few clouds at 3000 feet AGL
broken clouds at 4000 feet AGL
Weather: no significant weather observed at this time

METAR text: RJFK 230500Z 33016KT 9999 FEW030 BKN040 BKN110 13/01 Q1015 RMK 1CU030 5CU040 6AC110 A2999
Conditions at: RJFK (KAGOSHIMA AIRPOR, JP) observed 0500 UTC 23 March 2019
Temperature: 13.0°C (55°F)
Dewpoint: 1.0°C (34°F) [RH = 44%]
Pressure (altimeter): 29.97 inches Hg (1015.0 mb)
Winds: from the NNW (330 degrees) at 18 MPH (16 knots; 8.2 m/s)
Visibility: 6 or more miles (10+ km)
Ceiling: 4000 feet AGL
Clouds: few clouds at 3000 feet AGL
broken clouds at 4000 feet AGL
broken clouds at 11000 feet AGL
Weather: no significant weather observed at this time

METAR text: RJFK 230400Z 29009KT 9999 FEW030 BKN040 BKN110 12/01 Q1015 RMK 1CU030 5CU040 7AC110 A3000
Conditions at: RJFK (KAGOSHIMA AIRPOR, JP) observed 0400 UTC 23 March 2019
Temperature: 12.0°C (54°F)
Dewpoint: 1.0°C (34°F) [RH = 47%]
Pressure (altimeter): 29.97 inches Hg (1015.0 mb)
Winds: from the WNW (290 degrees) at 10 MPH (9 knots; 4.6 m/s)
Visibility: 6 or more miles (10+ km)
Ceiling: 4000 feet AGL
Clouds: few clouds at 3000 feet AGL
broken clouds at 4000 feet AGL
broken clouds at 11000 feet AGL
Weather: no significant weather observed at this time

METAR text: RJFK 230300Z 33007KT 280V020 9999 FEW030 BKN110 11/01 Q1016 RMK 1CU030 7AC110 A3000
Conditions at: RJFK (KAGOSHIMA AIRPOR, JP) observed 0300 UTC 23 March 2019
Temperature: 11.0°C (52°F)
Dewpoint: 1.0°C (34°F) [RH = 50%]
Pressure (altimeter): 30.00 inches Hg (1016.0 mb)
Winds: from the NNW (330 degrees) at 8 MPH (7 knots; 3.6 m/s)
Visibility: 6 or more miles (10+ km)
Ceiling: 11000 feet AGL
Clouds: few clouds at 3000 feet AGL
broken clouds at 11000 feet AGL
Weather: no significant weather observed at this time

METAR text: RJFK 230200Z 33010KT CAVOK 11/01 Q1017 RMK A3003
Conditions at: RJFK (KAGOSHIMA AIRPOR, JP) observed 0200 UTC 23 March 2019
Temperature: 11.0°C (52°F)
Dewpoint: 1.0°C (34°F) [RH = 50%]
Pressure (altimeter): 30.03 inches Hg (1017.0 mb)
Winds: from the NNW (330 degrees) at 12 MPH (10 knots; 5.1 m/s)
Visibility: 6 or more miles (10+ km)
Ceiling: ceiling and visibility are OK
Clouds: unknown
Weather: no significant weather observed at this time

METAR text: RJFK 230100Z 34007KT 300V020 CAVOK 11/01 Q1017 RMK A3003
Conditions at: RJFK (KAGOSHIMA AIRPOR, JP) observed 0100 UTC 23 March 2019
Temperature: 11.0°C (52°F)
Dewpoint: 1.0°C (34°F) [RH = 50%]
Pressure (altimeter): 30.03 inches Hg (1017.0 mb)
Winds: from the NNW (340 degrees) at 8 MPH (7 knots; 3.6 m/s)
Visibility: 6 or more miles (10+ km)
Ceiling: ceiling and visibility are OK
Clouds: unknown
Weather: no significant weather observed at this time

METAR text: RJFK 230000Z 35006KT 9999 FEW030 BKN110 09/01 Q1017
Conditions at: RJFK (KAGOSHIMA AIRPOR, JP) observed 0000 UTC 23 March 2019
Temperature: 9.0°C (48°F)
Dewpoint: 1.0°C (34°F) [RH = 57%]
Pressure (altimeter): 30.03 inches Hg (1017.0 mb)
Winds: from the N (350 degrees) at 7 MPH (6 knots; 3.1 m/s)
Visibility: 6 or more miles (10+ km)
Ceiling: 11000 feet AGL
Clouds: few clouds at 3000 feet AGL
broken clouds at 11000 feet AGL
Weather: no significant weather observed at this time

METAR text: RJFK 222300Z 33007KT 9999 FEW030 BKN110 08/01 Q1017 RMK 1CU030 7AC110 A3004
Conditions at: RJFK (KAGOSHIMA AIRPOR, JP) observed 2300 UTC 22 March 2019
Temperature: 8.0°C (46°F)
Dewpoint: 1.0°C (34°F) [RH = 61%]
Pressure (altimeter): 30.03 inches Hg (1017.0 mb)
Winds: from the NNW (330 degrees) at 8 MPH (7 knots; 3.6 m/s)
Visibility: 6 or more miles (10+ km)
Ceiling: 11000 feet AGL
Clouds: few clouds at 3000 feet AGL
broken clouds at 11000 feet AGL
Weather: no significant weather observed at this time

METAR text: RJFK 222200Z 31008KT 9999 FEW030 BKN110 08/01 Q1016 RMK 1CU030 7AC110 A3002
Conditions at: RJFK (KAGOSHIMA AIRPOR, JP) observed 2200 UTC 22 March 2019
Temperature: 8.0°C (46°F)
Dewpoint: 1.0°C (34°F) [RH = 61%]
Pressure (altimeter): 30.00 inches Hg (1016.0 mb)
Winds: from the NW (310 degrees) at 9 MPH (8 knots; 4.1 m/s)
Visibility: 6 or more miles (10+ km)
Ceiling: 11000 feet AGL
Clouds: few clouds at 3000 feet AGL
broken clouds at 11000 feet AGL
Weather: no significant weather observed at this time

METAR text: RJFK 222100Z 32007KT 9999 FEW020 BKN110 08/01 Q1016 RMK 1CU020 7AC110 A3000
Conditions at: RJFK (KAGOSHIMA AIRPOR, JP) observed 2100 UTC 22 March 2019
Temperature: 8.0°C (46°F)
Dewpoint: 1.0°C (34°F) [RH = 61%]
Pressure (altimeter): 30.00 inches Hg (1016.0 mb)
Winds: from the NW (320 degrees) at 8 MPH (7 knots; 3.6 m/s)
Visibility: 6 or more miles (10+ km)
Ceiling: 11000 feet AGL
Clouds: few clouds at 2000 feet AGL
broken clouds at 11000 feet AGL
Weather: no significant weather observed at this time

METAR text: RJFK 221200Z 34007KT 9999 FEW040 BKN140 09/04 Q1013 RMK 1CU040 5AC140 A2994
Conditions at: RJFK (KAGOSHIMA AIRPOR, JP) observed 1200 UTC 22 March 2019
Temperature: 9.0°C (48°F)
Dewpoint: 4.0°C (39°F) [RH = 71%]
Pressure (altimeter): 29.91 inches Hg (1013.0 mb)
Winds: from the NNW (340 degrees) at 8 MPH (7 knots; 3.6 m/s)
Visibility: 6 or more miles (10+ km)
Ceiling: 14000 feet AGL
Clouds: few clouds at 4000 feet AGL
broken clouds at 14000 feet AGL
Weather: no significant weather observed at this time

METAR text: RJFK 221100Z 31011KT 9999 FEW040 BKN/// 11/04 Q1013
Conditions at: RJFK (KAGOSHIMA AIRPOR, JP) observed 1100 UTC 22 March 2019
Temperature: 11.0°C (52°F)
Dewpoint: 4.0°C (39°F) [RH = 62%]
Pressure (altimeter): 29.91 inches Hg (1013.0 mb)
Winds: from the NW (310 degrees) at 13 MPH (11 knots; 5.7 m/s)
Visibility: 6 or more miles (10+ km)
Ceiling: at least 12,000 feet AGL
Clouds: few clouds at 4000 feet AGL
Weather: no significant weather observed at this time

Forecast for: RJFK (KAGOSHIMA AIRPOR, JP)
Text: TAF RJFK 231707Z 2318/2500 34005KT 9999 FEW030
Forecast period: 1800 UTC 23 March 2019 to 0200 UTC 24 March 2019
Forecast type: FROM: standard forecast or significant change
Winds: from the NNW (340 degrees) at 6 MPH (5 knots; 2.6 m/s)
Visibility: 6 or more miles 10+ km)
Ceiling: at least 12,000 feet AGL
Clouds: few clouds at 3000 feet AGL
Weather: no significant weather forecast for this period
Text: BECMG 2402/2404 22005KT
Forecast period: 0200 to 0600 UTC 24 March 2019
Forecast type: BECOMING: Conditions expected to become as follows by 0400 UTC 24 March 2019
Winds: from the SW (220 degrees) at 6 MPH (5 knots; 2.6 m/s)
Visibility: 6 or more miles 10+ km)
Ceiling: at least 12,000 feet AGL
Clouds: few clouds at 3000 feet AGL
Weather: no significant weather forecast for this period
Text: BECMG 2406/2409 32007KT
Forecast period: 0600 UTC 24 March 2019 to 0000 UTC 25 March 2019
Forecast type: BECOMING: Conditions expected to become as follows by 0900 UTC 24 March 2019
Winds: from the NW (320 degrees) at 8 MPH (7 knots; 3.6 m/s)
Visibility: 6 or more miles 10+ km)
Ceiling: at least 12,000 feet AGL
Clouds: few clouds at 3000 feet AGL
Weather: no significant weather forecast for this period